createdAt,value
2022-10-11T00:03:31.313Z,100903.52
2022-10-11T00:08:37.188Z,100906.70
2022-10-11T00:13:42.965Z,100903.13
2022-10-11T00:18:48.674Z,100903.23
2022-10-11T00:23:54.435Z,100895.33
2022-10-11T00:29:00.094Z,100897.61
2022-10-11T00:34:06.541Z,100897.33
2022-10-11T00:39:14.378Z,100893.95
2022-10-11T00:44:23.704Z,100891.83
2022-10-11T00:49:36.340Z,100899.36
2022-10-11T00:54:45.525Z,100899.06
2022-10-11T00:59:54.012Z,100895.52
2022-10-11T01:05:25.097Z,100886.63
2022-10-11T01:10:26.918Z,100879.80
2022-10-11T01:15:40.134Z,100873.80
2022-10-11T01:20:58.878Z,100868.63
2022-10-11T01:26:33.347Z,100859.84
2022-10-11T01:31:46.982Z,100859.57
2022-10-11T01:36:58.239Z,100858.59
2022-10-11T01:42:07.571Z,100860.34
2022-10-11T01:47:14.073Z,100853.76
2022-10-11T01:52:20.007Z,100847.98
2022-10-11T01:57:59.414Z,100850.21
2022-10-11T02:03:18.818Z,100850.22
2022-10-11T02:08:34.350Z,100851.27
2022-10-11T02:13:44.974Z,100849.33
2022-10-11T02:18:52.982Z,100842.55
2022-10-11T02:24:03.153Z,100838.56
2022-10-11T02:29:13.096Z,100829.59
2022-10-11T02:34:24.556Z,100833.18
2022-10-11T02:39:37.037Z,100834.17
2022-10-11T02:44:47.177Z,100843.64
2022-10-11T02:49:53.186Z,100844.66
2022-10-11T02:54:59.135Z,100844.33
2022-10-11T03:00:06.586Z,100841.54
2022-10-11T03:05:12.466Z,100849.27
2022-10-11T03:10:18.433Z,100854.11
2022-10-11T03:15:24.427Z,100849.96
2022-10-11T03:20:30.131Z,100845.84
2022-10-11T03:25:36.378Z,100851.70
2022-10-11T03:30:42.179Z,100855.70
2022-10-11T03:35:48.978Z,100859.38
2022-10-11T03:40:54.785Z,100861.29
2022-10-11T03:46:00.723Z,100867.02
2022-10-11T03:51:07.008Z,100871.37
2022-10-11T03:56:13.576Z,100873.91
2022-10-11T04:01:20.921Z,100871.27
2022-10-11T04:06:27.590Z,100873.14
2022-10-11T04:11:33.468Z,100879.55
2022-10-11T04:16:40.122Z,100877.80
2022-10-11T04:21:45.970Z,100880.38
2022-10-11T04:26:51.925Z,100884.86
2022-10-11T04:31:57.842Z,100878.85
2022-10-11T04:37:03.714Z,100874.19
2022-10-11T04:42:09.659Z,100882.40
2022-10-11T04:47:15.578Z,100890.27
2022-10-11T04:52:25.521Z,100895.38
2022-10-11T04:57:31.964Z,100900.30
2022-10-11T05:02:37.826Z,100898.63
2022-10-11T05:07:44.261Z,100902.28
2022-10-11T05:12:50.215Z,100905.23
2022-10-11T05:17:56.573Z,100911.33
2022-10-11T05:23:02.493Z,100918.97
2022-10-11T05:28:08.508Z,100924.01
2022-10-11T05:33:14.416Z,100927.66
2022-10-11T05:38:20.327Z,100926.11
2022-10-11T05:43:26.751Z,100932.15
2022-10-11T05:48:32.546Z,100937.30
2022-10-11T05:53:38.772Z,100946.04
2022-10-11T05:58:44.960Z,100943.20
2022-10-11T06:03:51.602Z,100946.93
2022-10-11T06:08:57.536Z,100952.20
2022-10-11T06:14:03.351Z,100959.23
2022-10-11T06:19:09.408Z,100968.45
2022-10-11T06:24:15.566Z,100969.14
2022-10-11T06:29:22.306Z,100982.50
2022-10-11T06:34:28.410Z,100998.17
2022-10-11T06:39:35.024Z,101010.44
2022-10-11T06:44:40.998Z,101022.09
2022-10-11T06:49:46.890Z,101026.59
2022-10-11T06:54:52.722Z,101030.70
2022-10-11T06:59:58.559Z,101030.74
2022-10-11T07:05:04.661Z,101039.60
2022-10-11T07:10:11.533Z,101045.77
2022-10-11T07:15:17.687Z,101052.04
2022-10-11T07:20:23.674Z,101061.75
2022-10-11T07:25:29.626Z,101070.48
2022-10-11T07:30:38.854Z,101081.23
2022-10-11T07:35:48.180Z,101092.29
2022-10-11T07:40:54.488Z,101093.28
2022-10-11T07:46:04.829Z,101098.65
2022-10-11T07:51:13.120Z,101111.61
2022-10-11T07:56:21.954Z,101118.03
2022-10-11T08:01:28.829Z,101118.48
2022-10-11T08:06:36.718Z,101122.08
2022-10-11T08:11:43.632Z,101129.23
2022-10-11T08:16:50.284Z,101137.69
2022-10-11T08:21:56.115Z,101138.85
2022-10-11T08:27:01.942Z,101142.89
2022-10-11T08:32:11.872Z,101148.35
2022-10-11T08:37:17.620Z,101151.80
2022-10-11T08:42:35.177Z,101151.06
2022-10-11T08:47:44.685Z,101152.14
2022-10-11T08:52:53.833Z,101153.95
2022-10-11T08:58:00.873Z,101158.99
2022-10-11T09:03:21.649Z,101158.88
2022-10-11T09:08:37.110Z,101161.95
2022-10-11T09:14:06.617Z,101166.23
2022-10-11T09:19:37.363Z,101168.73
2022-10-11T09:25:01.662Z,101174.48
2022-10-11T09:30:14.453Z,101176.77
2022-10-11T09:35:22.552Z,101178.88
2022-10-11T09:40:40.202Z,101179.60
2022-10-11T09:45:49.525Z,101180.58
2022-10-11T09:50:59.176Z,101192.13
2022-10-11T09:56:06.762Z,101200.70
2022-10-11T10:01:22.441Z,101204.92
2022-10-11T10:06:28.794Z,101204.86
2022-10-11T10:11:38.865Z,101201.05
2022-10-11T10:16:45.910Z,101205.34
2022-10-11T10:21:55.131Z,101210.49
2022-10-11T10:27:19.024Z,101213.31
2022-10-11T10:32:32.372Z,101211.85
2022-10-11T10:37:42.347Z,101214.25
2022-10-11T10:42:48.539Z,101222.52
2022-10-11T10:48:14.861Z,101230.85
2022-10-11T10:53:27.719Z,101226.34
2022-10-11T10:58:52.274Z,101224.77
2022-10-11T11:04:06.943Z,101235.13
2022-10-11T11:09:28.511Z,101244.66
2022-10-11T11:14:46.609Z,101251.57
2022-10-11T11:20:08.753Z,101247.02
2022-10-11T11:25:29.277Z,101249.63
2022-10-11T11:30:45.157Z,101255.35
2022-10-11T11:35:55.811Z,101256.88
2022-10-11T11:41:06.376Z,101252.04
2022-10-11T11:46:14.274Z,101252.11
2022-10-11T11:51:30.477Z,101257.23
2022-10-11T11:56:51.957Z,101257.96
2022-10-11T12:02:13.265Z,101265.91
2022-10-11T12:07:22.245Z,101271.08
2022-10-11T12:12:32.347Z,101270.63
2022-10-11T12:18:02.598Z,101270.23
2022-10-11T12:23:41.945Z,101270.89
2022-10-11T12:29:03.741Z,101269.80
2022-10-11T12:34:33.738Z,101269.44
2022-10-11T12:39:47.094Z,101272.94
2022-10-11T12:45:30.027Z,101270.14
2022-10-11T12:50:46.492Z,101275.49
2022-10-11T12:56:01.202Z,101280.98
2022-10-11T13:01:22.071Z,101288.95
2022-10-11T13:06:32.013Z,101288.86
2022-10-11T13:11:46.625Z,101295.38
2022-10-11T13:17:16.817Z,101297.30
2022-10-11T13:22:24.467Z,101291.16
2022-10-11T13:27:30.530Z,101294.13
2022-10-11T13:32:37.782Z,101300.14
2022-10-11T13:37:47.402Z,101304.91
2022-10-11T13:42:54.990Z,101310.77
2022-10-11T13:48:01.017Z,101315.37
2022-10-11T13:53:24.985Z,101314.19
2022-10-11T13:58:38.609Z,101316.65
2022-10-11T14:03:47.006Z,101317.84
2022-10-11T14:08:56.159Z,101324.29
2022-10-11T14:14:22.127Z,101329.98
2022-10-11T14:19:28.171Z,101334.98
2022-10-11T14:24:34.243Z,101335.52
2022-10-11T14:29:55.558Z,101335.23
2022-10-11T14:35:17.620Z,101338.85
2022-10-11T14:40:25.979Z,101339.77
2022-10-11T14:45:32.027Z,101338.17
2022-10-11T14:50:42.704Z,101349.02
2022-10-11T14:55:49.068Z,101353.38
2022-10-11T15:00:55.133Z,101357.16
2022-10-11T15:06:00.993Z,101359.96
2022-10-11T15:11:07.070Z,101364.16
2022-10-11T15:16:15.025Z,101365.88
2022-10-11T15:21:23.887Z,101368.64
2022-10-11T15:26:30.906Z,101372.39
2022-10-11T15:31:36.823Z,101376.53
2022-10-11T15:36:42.779Z,101383.27
2022-10-11T15:41:48.521Z,101387.17
2022-10-11T15:46:54.449Z,101392.90
2022-10-11T15:52:00.234Z,101401.95
2022-10-11T15:57:06.373Z,101409.27
2022-10-11T16:02:15.258Z,101414.05
2022-10-11T16:07:20.925Z,101421.66
2022-10-11T16:12:26.847Z,101424.26
2022-10-11T16:17:32.493Z,101431.50
2022-10-11T16:22:38.495Z,101440.07
2022-10-11T16:27:44.618Z,101447.68
2022-10-11T16:32:50.507Z,101449.95
2022-10-11T16:37:56.397Z,101452.20
2022-10-11T16:43:07.443Z,101450.59
2022-10-11T16:48:13.957Z,101451.01
2022-10-11T16:53:21.705Z,101452.81
2022-10-11T16:58:28.268Z,101456.70
2022-10-11T17:03:34.214Z,101458.66
2022-10-11T17:08:39.942Z,101459.38
2022-10-11T17:13:46.172Z,101462.88
2022-10-11T17:18:52.171Z,101472.13
2022-10-11T17:23:58.205Z,101474.43
2022-10-11T17:29:04.423Z,101474.46
2022-10-11T17:34:12.234Z,101475.51
2022-10-11T17:39:20.820Z,101480.71
2022-10-11T17:44:26.811Z,101483.66
2022-10-11T17:49:33.171Z,101482.60
2022-10-11T17:54:39.241Z,101485.20
2022-10-11T17:59:45.013Z,101490.23
2022-10-11T18:04:50.684Z,101488.16
2022-10-11T18:09:56.997Z,101491.98
2022-10-11T18:15:03.178Z,101495.27
2022-10-11T18:20:10.860Z,101497.69
2022-10-11T18:25:17.410Z,101496.82
2022-10-11T18:30:23.241Z,101496.46
2022-10-11T18:35:29.362Z,101500.29
2022-10-11T18:40:42.249Z,101506.16
2022-10-11T18:45:50.717Z,101509.63
2022-10-11T18:51:08.124Z,101514.98
2022-10-11T18:56:15.947Z,101521.55
2022-10-11T19:01:23.517Z,101523.64
2022-10-11T19:06:31.942Z,101523.63
2022-10-11T19:11:38.803Z,101526.02
2022-10-11T19:16:49.589Z,101528.20
2022-10-11T19:21:55.893Z,101525.22
2022-10-11T19:27:03.183Z,101530.37
2022-10-11T19:32:09.456Z,101539.33
2022-10-11T19:37:16.258Z,101537.20
2022-10-11T19:42:22.140Z,101535.56
2022-10-11T19:47:27.973Z,101539.45
2022-10-11T19:52:34.227Z,101540.58
2022-10-11T19:57:41.188Z,101543.79
2022-10-11T20:02:47.165Z,101543.56
2022-10-11T20:07:53.002Z,101546.98
2022-10-11T20:12:58.888Z,101553.23
2022-10-11T20:18:04.931Z,101556.73
2022-10-11T20:23:14.767Z,101561.98
2022-10-11T20:28:23.704Z,101560.55
2022-10-11T20:33:31.777Z,101560.95
2022-10-11T20:38:39.649Z,101562.74
2022-10-11T20:43:45.692Z,101564.74
2022-10-11T20:48:55.483Z,101564.09
2022-10-11T20:54:05.117Z,101560.52
2022-10-11T20:59:11.634Z,101567.08
2022-10-11T21:04:20.503Z,101566.64
2022-10-11T21:09:26.285Z,101568.91
2022-10-11T21:14:32.237Z,101569.05
2022-10-11T21:19:38.206Z,101570.03
2022-10-11T21:24:44.606Z,101573.94
2022-10-11T21:29:50.579Z,101572.20
2022-10-11T21:34:56.425Z,101574.40
2022-10-11T21:40:02.299Z,101576.36
2022-10-11T21:45:08.765Z,101581.67
2022-10-11T21:50:14.685Z,101583.08
2022-10-11T21:55:20.661Z,101588.48
2022-10-11T22:00:26.610Z,101590.70
2022-10-11T22:05:32.460Z,101587.76
2022-10-11T22:10:38.296Z,101590.66
2022-10-11T22:15:44.286Z,101587.45
2022-10-11T22:20:50.132Z,101588.23
2022-10-11T22:25:56.235Z,101589.21
2022-10-11T22:31:02.411Z,101589.16
2022-10-11T22:36:11.847Z,101592.87
2022-10-11T22:41:17.839Z,101594.84
2022-10-11T22:46:23.588Z,101600.30
2022-10-11T22:51:29.564Z,101605.91
2022-10-11T22:56:35.364Z,101607.92
2022-10-11T23:01:41.376Z,101609.20
2022-10-11T23:06:47.433Z,101610.36
2022-10-11T23:11:54.248Z,101610.96
2022-10-11T23:17:00.132Z,101612.80
2022-10-11T23:22:06.235Z,101612.73
2022-10-11T23:27:12.413Z,101613.38
2022-10-11T23:32:18.436Z,101615.82
2022-10-11T23:37:24.347Z,101619.11
2022-10-11T23:42:30.325Z,101621.21
2022-10-11T23:47:36.613Z,101619.15
2022-10-11T23:52:43.058Z,101622.98
2022-10-11T23:57:48.890Z,101624.74
